METAR / TAF

Die METAR- und TAF-Liste ist aus technischen Gründen (Verfügbarkeit, Update-Zyklen) nicht für ein Meteo-Briefing gedacht. Benutzen Sie stattdessen skybriefing der Skyguide  oder das TAMSI (MeteoSchweiz-eigene Meteo Selfbriefing-Plattform für Firmen aus der Aviatik; Anfragen über das

Kontaktformular

METAR Schweiz

METAR     LSZH 220220Z VRB01KT 5000 -RADZ FEW004 SCT045 BKN070
               11/10 Q1018 NOSIG=
METAR     LSZH 220250Z 14001KT 5000 -DZ FEW004 SCT033 BKN045 11/10
               Q1018 TEMPO 4000 BR=
METAR     LSGG 220220Z AUTO VRB02KT CAVOK 08/06 Q1018 NOSIG=
METAR     LSGG 220250Z AUTO VRB01KT CAVOK 08/06 Q1018 NOSIG=
METAR     LFSB 220230Z 12001KT 3000 0700N R15/0325D R33/1100D BCFG
               BR FEW002 SCT040 09/09 Q1018 TEMPO 0500 FG BKN002=
METAR     LSZB 220220Z AUTO 09003KT 9000 OVC070 10/10 Q1018=
METAR     LSZB 220250Z AUTO 10004KT 9999 OVC080 10/10 Q1018=
METAR     LSZA 220220Z AUTO VRB01KT CAVOK 10/10 Q1013=
METAR     LSZA 220250Z AUTO 01003KT CAVOK 10/10 Q1013=
METAR     LSZG 220220Z AUTO 00000KT 0150 FG VV000 09/09 Q1018=
METAR     LSZG 220250Z AUTO 05001KT 0050 FG VV000 09/09 Q1018=
METAR     LSZR 220220Z AUTO 10003KT 7000 -RA FEW043 OVC050 11/11
               Q1018=
METAR     LSZR 220250Z AUTO 11003KT 7000 -RA OVC050 11/11 Q1018=
METAR     LSGS 220220Z AUTO VRB01KT 9999 SCT080 10/07 Q1017=
METAR     LSGS 220250Z AUTO 00000KT 9999 NCD 10/07 Q1018=
METAR     LSGC 220220Z AUTO 00000KT 3200 BR BKN012 05/04 Q1019=
METAR     LSGC 220250Z AUTO 24002KT 0650 BR NCD 05/03 Q1019=
METAR     LSZC 220220Z AUTO 27003KT 9999 BKN033 SCT042 10/09 Q1018=
METAR     LSZC 220250Z AUTO 27003KT 9999 BKN032 10/09 Q1018=
METAR     LSZL 220220Z AUTO VRB01KT 9999NDV NCD 11/11 Q1013 RMK=
METAR     LSZL 220250Z NIL=
METAR     LSZS 220220Z AUTO 17001KT 9999 FEW045 BKN050 05/03 Q1017=
METAR     LSZS 220250Z AUTO 14002KT 9999 OVC050 04/02 Q1017=
METAR     LSMA 220220Z AUTO 00000KT 9999NDV BKN035 OVC049 10/10
               Q1018 RMK=
METAR     LSMA 220250Z NIL=
METAR     LSMD 220220Z AUTO 00000KT 4100NDV -SHRA BR FEW013 BKN042
               BKN059 11/11 Q1018 RMK=
METAR     LSMD 220250Z NIL=
METAR     LSME 220220Z AUTO 24003KT 9999NDV FEW027 OVC031 11/11
               Q1018 RMK=
METAR     LSME 220250Z NIL=
METAR     LSMM 220220Z AUTO VRB02KT 9999NDV -SHRA FEW011 OVC048
               09/09 Q1019 RMK=
METAR     LSMM 220250Z NIL=
METAR     LSMP 220220Z AUTO VRB02KT 9000NDV NCD 09/09 Q1018 RMK=
METAR     LSMP 220250Z NIL=
Aktualisiert am Mittwoch, 22. Mai 2019, 05:02 Uhr

TAF Schweiz

TAF     LSZH 212325Z 2200/2306 VRB03KT 6000 -RA FEW005 SCT040
             BKN050 TX19/2215Z TN09/2205Z TN07/2305Z PROB40
             2200/2206 4000 BR FEW002 PROB30 2203/2206 1500 BCFG
             SCT002 BECMG 2206/2209 27005KT TEMPO 2210/2215
             31007KT BECMG 2215/2217 02006KT=
TAF     LSGG 212325Z 2200/2306 VRB03KT CAVOK TX21/2215Z TN08/2205Z
             TN06/2305Z BECMG 2208/2210 05007KT 9999 FEW050 BECMG
             2218/2220 VRB03KT CAVOK PROB30 2302/2306 BKN030=
TAF     LFSB 212300Z 2200/2224 VRB03KT 6000 FEW015 TEMPO 2200/2208
             3000 BR BKN010 PROB40 TEMPO 2202/2207 0300 BCFG
             VV///=
TAF     LSZL 211725Z 2118/2203 VRB02KT 9999 SCT110 BKN150=
TAF AAD LSMA 212209Z 2122/2223 VRB03KT 7000 -RA FEW003 BKN041 TEMPO
             2200/2203 RA PROB40 2200/2208 3500 BR PROB30
             2203/2208 1500 BCFG PROB40 2210/2215 SHRA SCT045TCU=
TAF     LSMA 211625Z 2117/2223 02006KT 7000 RA BKN041 OVC050 TEMPO
             2117/2201 NSW BECMG 2200/2203 NSW PROB40 2210/2215
             SHRA SCT045TCU=
TAF AAB LSMD 212201Z 2122/2223 VRB03KT 9999 -RA FEW018 OVC060
             PROB40 2200/2208 4000 BR PROB30 2203/2206 1500 BCFG
             SCT002 PROB30 2210/2215 SHRA FEW040TCU=
TAF     LSMD 211625Z 2117/2223 VRB03KT 9999 -RA BKN018 OVC057
             PROB40 TEMPO 2117/2120 RA PROB30 2203/2206 1500 BCFG
             SCT002 PROB30 2210/2215 SHRA FEW040TCU=
TAF AAA LSME 212057Z 2120/2223 VRB02KT 4500 RA FEW031 OVC041 BECMG
             2200/2203 NSW PROB30 2203/2206 1500 BCFG SCT003
             PROB30 2210/2215 SHRA FEW045TCU=
TAF     LSME 211625Z 2117/2223 VRB02KT 7000 RA FEW031 OVC041 TEMPO
             2117/2201 NSW BECMG 2200/2203 NSW PROB30 2203/2206
             1500 BCFG SCT003 PROB30 2210/2215 SHRA FEW045TCU=
TAF AAC LSMM 212206Z 2122/2223 11004KT 9999 -RA FEW004 BKN027 TEMPO
             2200/2202 RA PROB40 2200/2208 4000 BR PROB30
             2203/2208 1500 BCFG PROB40 2210/2215 SHRA SCT045TCU=
TAF     LSMM 211625Z 2117/2223 VRB02KT 9999 -SHRA SCT036 BKN044
             BKN066 TEMPO 2117/2202 SHRA PROB40 2210/2215 SHRA
             SCT045TCU=
TAF     LSMP 211625Z 2117/2223 VRB03KT 9999 SCT050 BECMG 2122/2124
             4500 BR BECMG 2208/2210 CAVOK BECMG 2209/2211
             05010KT=
Aktualisiert am Mittwoch, 22. Mai 2019, 03:02 Uhr